Observations for EAST MIDLANDS, United Kingdom (EGNX)

EGNX 182120Z 05010KT CAVOK 05/02 Q1028  
EGNX 182050Z 05009KT CAVOK 05/02 Q1028  
EGNX 182020Z 04008KT CAVOK 05/02 Q1028  
EGNX 181950Z 05010KT CAVOK 05/02 Q1029  
EGNX 181920Z 06007KT CAVOK 05/02 Q1029  
EGNX 181850Z 06009KT CAVOK 06/03 Q1028  
EGNX 181820Z 06010KT CAVOK 06/03 Q1028  
EGNX 181750Z 06011KT CAVOK 06/03 Q1028  
EGNX 181720Z 06012KT CAVOK 07/04 Q1029  
EGNX 181650Z 05012KT CAVOK 07/04 Q1029  
EGNX 181620Z 05011KT CAVOK 07/04 Q1029  
EGNX 181550Z 06010KT 020V090 CAVOK 08/04 Q1029  
EGNX 181520Z 06011KT 9999 FEW014 09/05 Q1029
EGNX 181450Z 06012KT CAVOK 09/06 Q1029  
EGNX 181420Z 05013KT 020V080 9999 FEW015 09/08 Q1029
EGNX 181350Z 06012KT 9999 FEW014 09/09 Q1029
EGNX 181320Z 05012KT 9999 SCT013 09/09 Q1029
EGNX 181250Z 06010KT 030V090 9999 FEW008 SCT011 09/09 Q1029 
EGNX 181220Z 06010KT 9999 SCT008 08/08 Q1029
EGNX 181150Z 06009KT 9000 BKN007 08/08 Q1030
EGNX 181120Z 07009KT 8000 BKN004 08/08 Q1030
EGNX 181050Z 06010KT 5000 BR BKN004 07/07 Q1030 
EGNX 181020Z 06010KT 4500 BR BKN003 06/06 Q1030 
EGNX 180950Z 07011KT 3500 BR SCT002 BKN003 06/06 Q1030  
EGNX 180920Z 07010KT 3300 BR FEW001 BKN002 06/06 Q1030  
EGNX 180850Z 07011KT 3500 BR FEW001 BKN002 06/06 Q1030  
EGNX 180820Z 07011KT 2100 BR OVC001 06/06 Q1030 
EGNX 180750Z 07010KT 1900 BR OVC001 06/06 Q1030 
EGNX 180720Z 07012KT 2900 BR OVC001 06/06 Q1030 
EGNX 180650Z 07010KT 0700 R09/1000 FG BKN001 OVC002 06/06 Q1030 
EGNX 180620Z 07009KT 0600 R09/0750 FG SCT001 OVC002 06/06 Q1030 
EGNX 180550Z 06009KT 0600 R09/0800 FG BKN001 OVC002 05/05 Q1030 
EGNX 180520Z 05010KT 1000 R09/1200 BR BKN001 OVC002 05/05 Q1030 
EGNX 180450Z 06008KT 3000 BR SCT002 BKN003 05/05 Q1029  
EGNX 180420Z 06008KT 4000 BR BKN002 05/05 Q1029 
EGNX 180350Z AUTO 06007KT 6000 SCT003/// BKN009/// 05/05 Q1029  
EGNX 180320Z AUTO 05008KT 6000 NCD 05/05 Q1029  
EGNX 180250Z AUTO 05010KT 5000 BR FEW003/// 05/05 Q1029 
EGNX 180220Z AUTO 05010KT 4200 BR FEW002/// BKN009/// 04/04 Q1029   
EGNX 180150Z AUTO 05009KT 4500 BR SCT003/// BKN008/// 04/04 Q1029   
EGNX 180120Z AUTO 05010KT 4700 BR FEW003/// SCT009/// 05/05 Q1029   
EGNX 180050Z AUTO 05010KT 5000 BR FEW010/// 05/05 Q1029 
EGNX 180020Z AUTO 05008KT 6000 NCD 05/04 Q1029  
EGNX 172350Z 05008KT 9000 NSC 04/04 Q1029   
EGNX 172320Z 06006KT 9000 NSC 04/04 Q1029   
EGNX 172250Z 06005KT 9000 NSC 04/04 Q1029   
EGNX 172220Z 05008KT CAVOK 05/04 Q1029  
EGNX 172150Z 06006KT CAVOK 04/04 Q1029  
EGNX 172120Z 06006KT CAVOK 05/04 Q1029  
EGNX 172050Z 06006KT CAVOK 05/04 Q1029